createdAt,value
2022-08-11T00:00:39.510Z,3.42
2022-08-11T00:05:52.869Z,2.60
2022-08-11T00:11:03.225Z,2.63
2022-08-11T00:16:17.441Z,3.90
2022-08-11T00:22:02.875Z,3.78
2022-08-11T00:26:56.958Z,4.57
2022-08-11T00:32:07.678Z,6.40
2022-08-11T00:37:23.966Z,4.35
2022-08-11T00:42:50.075Z,4.53
2022-08-11T00:48:06.612Z,5.30
2022-08-11T00:53:38.576Z,4.05
2022-08-11T00:59:36.026Z,3.78
2022-08-11T01:05:43.973Z,3.63
2022-08-11T01:11:39.019Z,3.85
2022-08-11T01:18:08.747Z,3.20
2022-08-11T01:24:03.371Z,3.08
2022-08-11T01:30:04.788Z,3.35
2022-08-11T01:36:24.130Z,3.10
2022-08-11T01:42:25.029Z,2.92
2022-08-11T01:47:54.757Z,3.10
2022-08-11T01:53:24.192Z,2.63
2022-08-11T01:58:45.346Z,2.38
2022-08-11T02:04:04.865Z,3.00
2022-08-11T02:09:27.343Z,2.40
2022-08-11T02:14:53.519Z,3.08
2022-08-11T02:20:39.626Z,2.10
2022-08-11T02:26:00.882Z,2.10
2022-08-11T02:32:24.610Z,2.35
2022-08-11T02:37:29.869Z,2.38
2022-08-11T02:43:07.231Z,1.60
2022-08-11T02:48:48.814Z,2.00
2022-08-11T02:54:11.056Z,2.33
2022-08-11T02:59:48.397Z,3.00
2022-08-11T03:05:17.821Z,2.38
2022-08-11T03:10:34.212Z,2.17
2022-08-11T03:16:10.962Z,2.72
2022-08-11T03:21:24.902Z,3.22
2022-08-11T03:27:11.425Z,2.15
2022-08-11T03:32:30.593Z,2.90
2022-08-11T03:43:15.078Z,3.00
2022-08-11T03:48:29.867Z,3.67
2022-08-11T03:53:57.777Z,2.92
2022-08-11T03:59:39.846Z,2.65
2022-08-11T04:05:31.023Z,3.03
2022-08-11T04:11:29.717Z,2.35
2022-08-11T04:16:46.513Z,2.30
2022-08-11T04:22:37.701Z,2.63
2022-08-11T04:28:50.202Z,2.40
2022-08-11T04:34:39.546Z,2.33
2022-08-11T04:40:08.173Z,2.60
2022-08-11T04:45:55.046Z,2.53
2022-08-11T04:51:44.465Z,2.60
2022-08-11T04:57:13.164Z,1.63
2022-08-11T05:02:59.446Z,1.77
2022-08-11T05:08:52.385Z,2.22
2022-08-11T05:14:51.184Z,1.90
2022-08-11T05:26:43.289Z,2.53
2022-08-11T05:31:35.428Z,2.20
2022-08-11T05:36:50.238Z,1.90
2022-08-11T05:42:29.911Z,1.75
2022-08-11T05:47:57.101Z,1.60
2022-08-11T05:53:22.929Z,1.20
2022-08-11T05:58:41.164Z,3.15
2022-08-11T06:04:12.041Z,1.48
2022-08-11T06:09:29.070Z,1.42
2022-08-11T06:14:36.175Z,1.63
2022-08-11T06:19:48.709Z,1.58
2022-08-11T06:25:00.311Z,2.17
2022-08-11T06:30:13.888Z,1.85
2022-08-11T06:35:36.003Z,1.63
2022-08-11T06:41:08.614Z,1.42
2022-08-11T06:46:28.229Z,1.20
2022-08-11T06:51:41.686Z,1.58
2022-08-11T06:57:28.899Z,1.50
2022-08-11T07:02:38.911Z,1.63
2022-08-11T07:09:10.588Z,1.77
2022-08-11T07:14:39.929Z,1.58
2022-08-11T07:20:10.396Z,1.40
2022-08-11T07:25:37.461Z,1.27
2022-08-11T07:30:45.822Z,1.63
2022-08-11T07:35:56.234Z,1.00
2022-08-11T07:41:04.345Z,1.17
2022-08-11T07:46:30.240Z,1.20
2022-08-11T07:51:55.179Z,1.20
2022-08-11T07:57:09.095Z,1.20
2022-08-11T08:02:45.814Z,1.40
2022-08-11T08:08:09.608Z,1.10
2022-08-11T08:13:36.084Z,1.90
2022-08-11T08:18:43.724Z,1.20
2022-08-11T08:23:53.818Z,2.10
2022-08-11T08:29:25.053Z,1.33
2022-08-11T08:39:40.609Z,0.80
2022-08-11T08:44:57.526Z,0.90
2022-08-11T08:50:08.521Z,2.88
2022-08-11T08:55:20.223Z,1.38
2022-08-11T09:00:39.356Z,1.02
2022-08-11T09:05:45.851Z,1.08
2022-08-11T09:11:14.058Z,1.73
2022-08-11T09:21:39.765Z,0.70
2022-08-11T09:27:01.409Z,0.50
2022-08-11T09:32:09.470Z,0.50
2022-08-11T09:37:54.343Z,0.65
2022-08-11T09:43:17.986Z,1.25
2022-08-11T09:48:27.975Z,1.10
2022-08-11T09:53:41.022Z,0.90
2022-08-11T09:58:47.829Z,0.50
2022-08-11T10:04:01.835Z,0.85
2022-08-11T10:09:09.218Z,0.80
2022-08-11T10:14:35.273Z,0.40
2022-08-11T10:19:48.868Z,1.38
2022-08-11T10:25:32.911Z,2.08
2022-08-11T10:30:58.144Z,0.60
2022-08-11T10:36:16.507Z,0.50
2022-08-11T10:42:03.402Z,0.40
2022-08-11T10:47:26.213Z,0.40
2022-08-11T10:52:52.183Z,0.85
2022-08-11T10:58:15.804Z,1.13
2022-08-11T11:03:23.955Z,0.63
2022-08-11T11:08:51.459Z,2.97
2022-08-11T11:14:15.967Z,0.60
2022-08-11T11:19:27.180Z,0.95
2022-08-11T11:24:47.595Z,0.50
2022-08-11T11:30:05.195Z,0.77
2022-08-11T11:35:28.257Z,0.40
2022-08-11T11:40:37.757Z,0.40
2022-08-11T11:45:44.425Z,0.30
2022-08-11T11:50:53.738Z,0.50
2022-08-11T11:56:04.755Z,0.60
2022-08-11T12:01:20.215Z,0.35
2022-08-11T12:06:28.197Z,0.38
2022-08-11T12:11:53.755Z,0.30
2022-08-11T12:17:00.605Z,0.52
2022-08-11T12:22:24.463Z,0.40
2022-08-11T12:27:33.490Z,0.30
2022-08-11T12:32:46.223Z,0.35
2022-08-11T12:38:02.636Z,0.45
2022-08-11T12:43:38.785Z,0.90
2022-08-11T12:49:06.097Z,5.85
2022-08-11T12:54:16.538Z,2.75
2022-08-11T12:59:42.100Z,0.50
2022-08-11T13:04:56.513Z,0.30
2022-08-11T13:10:07.116Z,0.50
2022-08-11T13:15:27.175Z,0.80
2022-08-11T13:20:34.677Z,0.70
2022-08-11T13:25:41.970Z,0.55
2022-08-11T13:31:08.613Z,1.20
2022-08-11T13:36:16.936Z,1.60
2022-08-11T13:41:48.604Z,4.30
2022-08-11T13:46:59.317Z,0.93
2022-08-11T13:52:08.886Z,0.40
2022-08-11T13:58:06.721Z,0.30
2022-08-11T14:02:50.257Z,0.47
2022-08-11T14:08:02.908Z,0.40
2022-08-11T14:13:42.689Z,0.30
2022-08-11T14:19:02.098Z,0.60
2022-08-11T14:24:12.067Z,2.08
2022-08-11T14:29:23.706Z,1.35
2022-08-11T14:34:34.790Z,1.58
2022-08-11T14:39:47.674Z,0.40
2022-08-11T14:45:16.455Z,0.50
2022-08-11T14:50:28.747Z,0.40
2022-08-11T14:55:59.401Z,0.40
2022-08-11T15:01:27.237Z,0.38
2022-08-11T15:06:35.527Z,0.38
2022-08-11T15:11:59.903Z,0.57
2022-08-11T15:17:13.488Z,0.70
2022-08-11T15:22:39.452Z,0.90
2022-08-11T15:28:05.699Z,0.90
2022-08-11T15:33:33.632Z,0.68
2022-08-11T15:38:46.412Z,0.50
2022-08-11T15:44:44.590Z,0.75
2022-08-11T15:50:10.397Z,0.40
2022-08-11T16:00:46.131Z,0.43
2022-08-11T16:05:53.451Z,0.40
2022-08-11T16:11:02.229Z,0.43
2022-08-11T16:16:19.141Z,0.38
2022-08-11T16:21:34.659Z,0.40
2022-08-11T16:27:10.891Z,0.40
2022-08-11T16:32:18.716Z,0.38
2022-08-11T16:37:43.941Z,0.40
2022-08-11T16:43:11.870Z,0.52
2022-08-11T16:48:37.573Z,0.50
2022-08-11T16:54:03.812Z,0.40
2022-08-11T16:59:20.469Z,0.50
2022-08-11T17:05:01.078Z,0.75
2022-08-11T17:10:52.527Z,0.40
2022-08-11T17:16:12.944Z,0.68
2022-08-11T17:21:24.345Z,0.30
2022-08-11T17:26:57.471Z,0.50
2022-08-11T17:32:26.050Z,0.50
2022-08-11T17:37:34.962Z,0.35
2022-08-11T17:48:34.812Z,0.30
2022-08-11T17:54:23.930Z,0.50
2022-08-11T17:59:49.062Z,0.50
2022-08-11T18:04:58.403Z,0.60
2022-08-11T18:10:26.125Z,0.50
2022-08-11T18:15:55.574Z,0.40
2022-08-11T18:21:21.775Z,0.75
2022-08-11T18:26:47.364Z,0.50
2022-08-11T18:32:21.184Z,0.60
2022-08-11T18:37:55.023Z,0.60
2022-08-11T18:43:27.482Z,1.00
2022-08-11T18:48:53.874Z,0.85
2022-08-11T18:54:25.422Z,1.17
2022-08-11T18:59:55.779Z,1.10
2022-08-11T19:06:36.685Z,1.35
2022-08-11T19:11:07.704Z,1.15
2022-08-11T19:16:32.146Z,1.50
2022-08-11T19:21:59.503Z,1.35
2022-08-11T19:27:25.072Z,1.73
2022-08-11T19:32:50.390Z,2.05
2022-08-11T19:38:14.986Z,4.90
2022-08-11T19:43:42.477Z,4.43
2022-08-11T19:49:12.957Z,6.03
2022-08-11T19:54:37.155Z,5.45
2022-08-11T20:00:02.857Z,5.32
2022-08-11T20:05:30.106Z,5.25
2022-08-11T20:10:55.899Z,4.95
2022-08-11T20:16:22.868Z,5.05
2022-08-11T20:21:47.521Z,6.68
2022-08-11T20:27:24.021Z,5.88
2022-08-11T20:32:49.714Z,6.13
2022-08-11T20:38:14.468Z,5.25
2022-08-11T20:44:05.557Z,4.78
2022-08-11T20:49:26.916Z,4.72
2022-08-11T20:55:06.792Z,4.13
2022-08-11T21:00:40.415Z,2.58
2022-08-11T21:06:08.765Z,2.55
2022-08-11T21:11:36.727Z,2.90
2022-08-11T21:17:26.725Z,2.80
2022-08-11T21:22:59.142Z,2.65
2022-08-11T21:28:31.169Z,3.15
2022-08-11T21:33:56.517Z,3.45
2022-08-11T21:39:24.818Z,3.17
2022-08-11T21:44:49.044Z,3.13
2022-08-11T21:50:12.659Z,3.25
2022-08-11T21:55:38.267Z,2.97
2022-08-11T22:01:03.207Z,3.70
2022-08-11T22:06:28.642Z,3.20
2022-08-11T22:12:29.967Z,2.85
2022-08-11T22:17:37.298Z,2.28
2022-08-11T22:23:02.606Z,2.95
2022-08-11T22:28:29.609Z,3.20
2022-08-11T22:34:02.698Z,2.55
2022-08-11T22:39:27.129Z,2.58
2022-08-11T22:44:53.670Z,2.28
2022-08-11T22:50:19.829Z,2.80
2022-08-11T22:55:44.899Z,2.70
2022-08-11T23:01:11.173Z,2.63
2022-08-11T23:06:36.668Z,2.42
2022-08-11T23:12:07.830Z,2.13
2022-08-11T23:17:35.612Z,2.70
2022-08-11T23:22:59.669Z,3.03
2022-08-11T23:28:26.526Z,2.30
2022-08-11T23:33:56.604Z,2.00
2022-08-11T23:39:20.348Z,2.63
2022-08-11T23:44:44.008Z,2.20
2022-08-11T23:50:10.107Z,2.58
2022-08-11T23:55:36.206Z,2.50
